Data for 04/04/2009

Time Sea-Level Adjusted Pressure Absolute Pressure Temperature Relative Humidity Dew Point   
(mb) (inHg) (mb) (inHg) (C) (F) (%) (C) (F)
00:05 1014 29.94 843 24.89 -2 28.5 95 -2.6 27.3
00:10 1014 29.94 843 24.89 -2 28.4 95 -2.7 27.2
00:15 1014 29.94 843 24.89 -2 28.3 96 -2.6 27.3
00:20 1014 29.94 843 24.89 -2 28.3 96 -2.6 27.3
00:25 1014 29.94 843 24.89 -2 28.4 96 -2.5 27.4
00:30 1014 29.94 843 24.89 -2 28.4 97 -2.5 27.5
00:35 1014 29.94 843 24.89 -2 28.4 96 -2.6 27.3
00:40 1014 29.94 843 24.89 -2 28.4 95 -2.8 27
00:45 1014 29.94 843 24.89 -2 28.4 94 -2.8 26.9
00:50 1014 29.94 843 24.89 -2 28.4 94 -2.9 26.7
00:55 1014 29.94 843 24.89 -2 28.4 93 -3 26.6
01:00 1014 29.94 843 24.89 -2 28.5 92 -3.1 26.4
01:05 1014 29.94 843 24.89 -1.9 28.6 92 -3 26.5
01:10 1014 29.94 843 24.89 -1.9 28.7 89 -3.4 25.8
01:15 1014 29.94 843 24.89 -1.9 28.7 91 -3.1 26.4
01:20 1014 29.94 843 24.89 -1.9 28.6 89 -3.4 25.8
01:25 1014 29.94 843 24.89 -1.8 28.7 88 -3.6 25.6
01:30 1014 29.94 844 24.92 -1.8 28.8 88 -3.5 25.8
01:35 1014 29.94 844 24.92 -1.8 28.8 88 -3.5 25.6
01:40 1015 29.97 844 24.92 -1.8 28.8 87 -3.7 25.3
01:45 1015 29.97 844 24.92 -1.7 28.9 88 -3.5 25.7
01:50 1015 29.97 844 24.92 -1.8 28.8 87 -3.7 25.3
01:55 1015 29.97 844 24.92 -1.8 28.8 84 -4.1 24.6
02:00 1015 29.97 844 24.92 -1.7 29 84 -4 24.7
02:05 1015 29.97 844 24.92 -1.7 29 83 -4.1 24.6
02:10 1015 29.97 844 24.92 -1.7 29 83 -4.2 24.4
02:15 1015 29.97 844 24.92 -1.7 29 85 -3.9 25
02:20 1015 29.97 844 24.92 -1.7 28.9 83 -4.2 24.5
02:25 1015 29.97 844 24.92 -1.7 28.9 85 -3.9 25
02:30 1015 29.97 844 24.92 -1.6 29 84 -4.1 24.7
02:35 1015 29.97 844 24.92 -1.7 29 82 -4.3 24.3
02:40 1015 29.97 844 24.92 -1.6 29 83 -4.2 24.4
02:45 1015 29.97 844 24.92 -1.6 29.1 81 -4.5 23.9
02:50 1015 29.97 845 24.95 -1.7 29 82 -4.4 24.1
02:55 1015 29.97 845 24.95 -1.8 28.8 84 -4.2 24.5
03:00 1016 30 845 24.95 -1.8 28.7 86 -3.9 25
03:05 1015 29.97 845 24.95 -1.9 28.5 86 -4 24.8
03:10 1015 29.97 845 24.95 -1.9 28.5 84 -4.3 24.3
03:15 1016 30 845 24.95 -1.9 28.6 84 -4.3 24.3
03:20 1016 30 845 24.95 -1.8 28.7 84 -4.2 24.4
03:25 1016 30 845 24.95 -1.9 28.6 85 -4.1 24.6
03:30 1016 30 845 24.95 -1.9 28.7 83 -4.3 24.2
03:35 1016 30 845 24.95 -1.8 28.7 85 -4 24.8
03:40 1016 30 845 24.95 -2 28.4 87 -3.8 25.1
03:45 1016 30 845 24.95 -2.1 28.2 87 -4.1 24.7
03:50 1016 30 845 24.95 -2.1 28.3 85 -4.3 24.3
03:55 1016 30 845 24.95 -2 28.4 85 -4.2 24.4
04:00 1016 30 845 24.95 -2.1 28.3 85 -4.2 24.4
04:05 1016 30 845 24.95 -2.1 28.3 85 -4.2 24.4
04:10 1016 30 845 24.95 -2.1 28.2 86 -4.2 24.5
04:15 1016 30 845 24.95 -2.2 28 86 -4.2 24.4
04:20 1016 30 845 24.95 -2.2 28 86 -4.2 24.4
04:25 1016 30 846 24.98 -2.3 27.9 87 -4.2 24.5
04:30 1016 30 846 24.98 -2.3 27.8 86 -4.3 24.2
04:35 1016 30 846 24.98 -2.3 27.9 87 -4.3 24.3
04:40 1016 30 846 24.98 -2.3 27.8 85 -4.5 24
04:45 1017 30.03 846 24.98 -2.3 27.8 86 -4.4 24.1
04:50 1017 30.03 846 24.98 -2.4 27.7 85 -4.6 23.8
04:55 1017 30.03 846 24.98 -2.3 27.8 83 -4.9 23.2
05:00 1017 30.03 846 24.98 -2.3 27.9 84 -4.7 23.5
05:05 1017 30.03 846 24.98 -2.4 27.6 85 -4.6 23.7
05:10 1017 30.03 846 24.98 -2.5 27.5 85 -4.8 23.4
05:15 1017 30.03 846 24.98 -2.5 27.5 82 -5.1 22.8
05:20 1017 30.03 846 24.98 -2.5 27.5 82 -5.2 22.7
05:25 1017 30.03 846 24.98 -2.5 27.5 81 -5.3 22.4
05:30 1017 30.03 846 24.98 -2.5 27.5 81 -5.3 22.4
05:35 1017 30.03 846 24.98 -2.5 27.5 80 -5.4 22.2
05:40 1017 30.03 846 24.98 -2.5 27.6 80 -5.4 22.3
05:45 1017 30.03 846 24.98 -2.5 27.5 81 -5.3 22.5
05:50 1017 30.03 846 24.98 -2.5 27.4 81 -5.4 22.3
05:55 1017 30.03 846 24.98 -2.6 27.4 82 -5.3 22.5
06:00 1017 30.03 846 24.98 -2.6 27.3 82 -5.2 22.6
06:05 1017 30.03 847 25.01 -2.7 27.2 81 -5.4 22.3
06:10 1017 30.03 847 25.01 -2.7 27.2 81 -5.5 22.1
06:15 1017 30.03 847 25.01 -2.6 27.2 80 -5.6 22
06:20 1017 30.03 847 25.01 -2.7 27.2 82 -5.4 22.3
06:25 1017 30.03 847 25.01 -2.7 27.2 80 -5.7 21.7
06:30 1018 30.06 847 25.01 -2.6 27.4 80 -5.6 22
06:35 1018 30.06 847 25.01 -2.6 27.4 77 -6.1 21
06:40 1018 30.06 847 25.01 -2.5 27.5 79 -5.6 22
06:45 1018 30.06 847 25.01 -2.5 27.5 80 -5.6 22
06:50 1018 30.06 847 25.01 -2.6 27.3 81 -5.5 22.1
06:55 1018 30.06 847 25.01 -2.7 27.2 83 -5.2 22.7
07:00 1018 30.06 847 25.01 -2.7 27.1 84 -5 22.9
07:05 1018 30.06 847 25.01 -2.8 27 85 -5.1 22.9
07:10 1018 30.06 848 25.04 -2.8 26.9 84 -5.2 22.6
07:15 1018 30.06 848 25.04 -2.8 26.9 85 -5 23
07:20 1019 30.09 848 25.04 -2.9 26.8 85 -5 23
07:25 1019 30.09 848 25.04 -3 26.6 87 -4.8 23.4
07:30 1019 30.09 848 25.04 -3.1 26.4 88 -4.8 23.4
07:35 1019 30.09 848 25.04 -3.2 26.3 89 -4.7 23.6
07:40 1019 30.09 848 25.04 -3.2 26.2 89 -4.7 23.5
07:45 1019 30.09 848 25.04 -3.3 26.1 91 -4.6 23.7
07:50 1019 30.09 848 25.04 -3.3 26 91 -4.6 23.6
07:55 1019 30.09 848 25.04 -3.3 26 90 -4.7 23.5
08:00 1019 30.09 848 25.04 -3.3 26 90 -4.8 23.4
08:05 1019 30.09 848 25.04 -3.3 26.1 90 -4.7 23.5
08:10 1019 30.09 848 25.04 -3.3 26.1 90 -4.7 23.5
08:15 1019 30.09 849 25.07 -3.3 26.1 90 -4.7 23.5
08:20 1019 30.09 849 25.07 -3.2 26.2 90 -4.6 23.7
08:25 1019 30.09 849 25.07 -3.2 26.2 89 -4.7 23.5
08:30 1020 30.12 849 25.07 -3.2 26.3 89 -4.7 23.6
08:35 1020 30.12 849 25.07 -3.1 26.4 89 -4.6 23.6
08:40 1020 30.12 849 25.07 -3.1 26.5 89 -4.6 23.7
08:45 1020 30.12 849 25.07 -3 26.5 90 -4.5 23.9
08:50 1020 30.12 849 25.07 -3 26.6 90 -4.5 23.9
08:55 1020 30.12 849 25.07 -3 26.6 89 -4.6 23.7
09:00 1020 30.12 849 25.07 -2.9 26.7 89 -4.6 23.8
09:05 1020 30.12 849 25.07 -2.9 26.7 88 -4.7 23.6
09:10 1020 30.12 849 25.07 -2.9 26.8 86 -4.9 23.1
09:15 1020 30.12 849 25.07 -2.8 27 84 -5.2 22.7
09:20 1020 30.12 849 25.07 -2.7 27.1 84 -5 23
09:25 1020 30.12 849 25.07 -2.7 27.2 83 -5.2 22.7
09:30 1020 30.12 850 25.1 -2.7 27.2 84 -5 23
09:35 1020 30.12 850 25.1 -2.6 27.3 83 -5.1 22.7
09:40 1020 30.12 850 25.1 -2.6 27.3 83 -5.2 22.7
09:45 1021 30.15 850 25.1 -2.6 27.4 83 -5.1 22.8
09:50 1021 30.15 850 25.1 -2.5 27.4 83 -5.1 22.8
09:55 1021 30.15 850 25.1 -2.5 27.5 83 -5.1 22.9
10:00 1021 30.15 850 25.1 -2.5 27.5 83 -5 22.9
10:05 1021 30.15 850 25.1 -2.5 27.5 84 -4.9 23.2
10:10 1021 30.15 850 25.1 -2.5 27.4 84 -5 23.1
10:15 1021 30.15 850 25.1 -2.6 27.3 85 -4.9 23.3
10:20 1021 30.15 850 25.1 -2.5 27.5 84 -4.8 23.4
10:25 1021 30.15 850 25.1 -2.4 27.7 84 -4.8 23.3
10:30 1021 30.15 850 25.1 -2.5 27.5 83 -5 23
10:35 1021 30.15 850 25.1 -2.5 27.5 84 -4.9 23.3
10:40 1021 30.15 850 25.1 -2.4 27.6 85 -4.7 23.6
10:45 1021 30.15 850 25.1 -2.3 27.8 84 -4.7 23.6
10:50 1021 30.15 850 25.1 -2.5 27.6 85 -4.6 23.6
10:55 1021 30.15 850 25.1 -2.5 27.6 85 -4.6 23.7
11:00 1021 30.15 850 25.1 -2.3 27.8 84 -4.7 23.5
11:05 1021 30.15 850 25.1 -2.1 28.2 81 -4.9 23.2
11:10 1021 30.15 850 25.1 -2 28.5 81 -4.8 23.3
11:15 1021 30.15 851 25.13 -1.6 29 78 -5.1 22.9
11:20 1021 30.15 851 25.13 -1.4 29.6 76 -5 23
11:25 1021 30.15 851 25.13 -1.1 30 75 -5 23
11:30 1021 30.15 851 25.13 -0.9 30.3 76 -4.6 23.7
11:35 1021 30.15 851 25.13 -0.7 30.7 72 -5.1 22.9
11:40 1022 30.18 851 25.13 -0.7 30.7 71 -5.2 22.6
11:45 1022 30.18 851 25.13 -1.2 29.9 75 -5 23
11:50 1022 30.18 851 25.13 -0.8 30.5 75 -4.7 23.6
11:55 1022 30.18 851 25.13 -0.6 30.9 71 -5.2 22.6
12:00 1022 30.18 851 25.13 -0.4 31.3 71 -5.1 22.8
12:05 1022 30.18 851 25.13 -0.7 30.7 71 -5.3 22.4
12:10 1022 30.18 851 25.13 -0.7 30.7 72 -5.2 22.7
12:15 1022 30.18 851 25.13 -0.5 31.1 72 -4.9 23.1
12:20 1022 30.18 851 25.13 -0.5 31.2 71 -5 23
12:25 1022 30.18 851 25.13 -0.3 31.5 70 -5.1 22.9
12:30 1022 30.18 851 25.13 -0.2 31.6 70 -5.1 22.8
12:35 1022 30.18 851 25.13 -1 30.1 72 -5.4 22.2
12:40 1022 30.18 851 25.13 -1.1 30.1 74 -5.1 22.8
12:45 1022 30.18 851 25.13 -0.8 30.5 72 -5.2 22.6
12:50 1022 30.18 851 25.13 -1 30.2 72 -5.5 22.2
12:55 1022 30.18 851 25.13 -0.7 30.8 71 -5.3 22.4
13:00 1022 30.18 851 25.13 -0.5 31.1 69 -5.5 22.1
13:05 1022 30.18 851 25.13 -0.8 30.6 71 -5.4 22.3
13:10 1022 30.18 851 25.13 -0.6 31 69 -5.6 22
13:15 1022 30.18 851 25.13 -0.8 30.6 70 -5.6 22
13:20 1022 30.18 851 25.13 -0.8 30.6 73 -5 22.9
13:25 1022 30.18 852 25.16 -0.1 31.9 68 -5.2 22.6
13:30 1022 30.18 852 25.16 0.1 32.2 67 -5.4 22.4
13:35 1022 30.18 852 25.16 0.2 32.3 67 -5.2 22.6
13:40 1022 30.18 852 25.16 0.3 32.6 67 -5.1 22.8
13:45 1022 30.18 852 25.16 0.8 33.5 63 -5.4 22.3
13:50 1022 30.18 852 25.16 0.4 32.7 66 -5.3 22.4
13:55 1022 30.18 852 25.16 0.1 32.1 69 -5 23.1
14:00 1023 30.21 852 25.16 0.3 32.5 66 -5.2 22.6
14:05 1023 30.21 852 25.16 0.1 32.2 66 -5.4 22.2
14:10 1023 30.21 852 25.16 0.3 32.5 69 -4.8 23.4
14:15 1023 30.21 852 25.16 0.3 32.5 64 -5.8 21.6
14:20 1023 30.21 852 25.16 0.6 33.1 60 -6.3 20.6
14:25 1023 30.21 852 25.16 0.7 33.2 61 -6.1 21
14:30 1023 30.21 852 25.16 0.7 33.2 60 -6.3 20.7
14:35 1023 30.21 852 25.16 0.3 32.5 60 -6.6 20.1
14:40 1023 30.21 852 25.16 0.4 32.8 60 -6.5 20.3
14:45 1023 30.21 852 25.16 0.6 33 56 -7.3 18.9
14:50 1023 30.21 852 25.16 0.7 33.2 57 -6.9 19.6
14:55 1023 30.21 852 25.16 1.2 34.1 55 -7 19.4
15:00 1023 30.21 852 25.16 1.2 34.2 58 -6.3 20.7
15:05 1023 30.21 852 25.16 0.8 33.5 56 -7 19.4
15:10 1023 30.21 852 25.16 0.7 33.2 60 -6.2 20.8
15:15 1023 30.21 852 25.16 0.7 33.2 59 -6.4 20.5
15:20 1023 30.21 852 25.16 -0.2 31.6 60 -7.1 19.2
15:25 1023 30.21 852 25.16 -0.4 31.3 60 -7.2 19.1
15:30 1023 30.21 852 25.16 -0.3 31.4 62 -6.8 19.7
15:35 1023 30.21 852 25.16 -0.4 31.3 61 -7.1 19.3
15:40 1023 30.21 852 25.16 -0.3 31.5 62 -6.8 19.8
15:45 1023 30.21 852 25.16 0.3 32.5 61 -6.4 20.5
15:50 1023 30.21 852 25.16 0.4 32.7 60 -6.5 20.3
15:55 1023 30.21 852 25.16 0.4 32.7 58 -6.9 19.6
16:00 1023 30.21 852 25.16 0.6 33.1 60 -6.4 20.6
16:05 1023 30.21 852 25.16 0.5 32.9 58 -6.8 19.7
16:10 1023 30.21 852 25.16 0.1 32.2 62 -6.4 20.5
16:15 1023 30.21 852 25.16 0 32.1 63 -6.2 20.9
16:20 1023 30.21 852 25.16 0.1 32.2 62 -6.3 20.6
16:25 1023 30.21 852 25.16 0 32.1 62 -6.4 20.6
16:30 1023 30.21 852 25.16 0.1 32.1 61 -6.6 20
16:35 1023 30.21 852 25.16 -0 31.9 64 -6.1 21
16:40 1023 30.21 852 25.16 0 32 63 -6.3 20.7
16:45 1023 30.21 852 25.16 -0 31.9 62 -6.5 20.3
16:50 1023 30.21 852 25.16 -0.1 31.8 61 -6.7 20
16:55 1023 30.21 852 25.16 -0.1 31.8 63 -6.2 20.8
17:00 1023 30.21 852 25.16 0 32 63 -6.2 20.9
17:05 1023 30.21 852 25.16 -0 32 62 -6.3 20.6
17:10 1023 30.21 852 25.16 -0.1 31.8 61 -6.7 20
17:15 1023 30.21 852 25.16 -0.3 31.5 65 -6.1 21
17:20 1023 30.21 852 25.16 -0.3 31.4 65 -6.1 21
17:25 1023 30.21 853 25.19 -0.2 31.6 65 -5.9 21.3
17:30 1023 30.21 853 25.19 -0 32 65 -5.9 21.4
17:35 1023 30.21 853 25.19 -0.2 31.7 64 -6.1 21.1
17:40 1023 30.21 853 25.19 0.3 32.5 62 -6.1 20.9
17:45 1023 30.21 853 25.19 0.5 32.9 60 -6.3 20.7
17:50 1024 30.24 853 25.19 0 32.1 61 -6.5 20.3
17:55 1024 30.24 853 25.19 -0 32 64 -6.1 21
18:00 1024 30.24 853 25.19 -0.2 31.7 61 -6.8 19.8
18:05 1024 30.24 853 25.19 -0.3 31.5 63 -6.5 20.2
18:10 1024 30.24 853 25.19 -0.5 31.2 61 -7 19.4
18:15 1024 30.24 853 25.19 -0.5 31.1 64 -6.5 20.3
18:20 1024 30.24 853 25.19 -0.5 31.1 62 -6.8 19.7
18:25 1024 30.24 853 25.19 -0.6 30.9 64 -6.7 20
18:30 1024 30.24 853 25.19 -0.7 30.7 65 -6.4 20.4
18:35 1024 30.24 853 25.19 -0.8 30.5 66 -6.4 20.5
18:40 1024 30.24 853 25.19 -0.8 30.5 67 -6.2 20.8
18:45 1024 30.24 853 25.19 -0.8 30.5 65 -6.6 20.1
18:50 1024 30.24 853 25.19 -0.9 30.4 67 -6.3 20.7
18:55 1024 30.24 853 25.19 -0.9 30.4 67 -6.2 20.8
19:00 1024 30.24 853 25.19 -1 30.2 66 -6.6 20.2
19:05 1024 30.24 853 25.19 -1 30.1 64 -6.9 19.6
19:10 1024 30.24 853 25.19 -1.1 30 67 -6.5 20.2
19:15 1024 30.24 853 25.19 -1.2 29.9 65 -6.8 19.7
19:20 1024 30.24 853 25.19 -1.2 29.8 66 -6.7 20
19:25 1024 30.24 853 25.19 -1.2 29.8 67 -6.6 20
19:30 1024 30.24 854 25.22 -1.4 29.5 67 -6.7 19.9
19:35 1024 30.24 854 25.22 -1.4 29.5 67 -6.7 20
19:40 1024 30.24 854 25.22 -1.5 29.3 66 -7 19.3
19:45 1024 30.24 854 25.22 -1.5 29.3 66 -7.1 19.2
19:50 1024 30.24 854 25.22 -1.5 29.2 66 -7.1 19.3
19:55 1025 30.27 854 25.22 -1.7 29 68 -6.8 19.8
20:00 1025 30.27 854 25.22 -1.8 28.8 68 -6.9 19.6
20:05 1025 30.27 854 25.22 -1.9 28.7 70 -6.7 20
20:10 1025 30.27 854 25.22 -2 28.5 69 -6.8 19.7
20:15 1025 30.27 854 25.22 -2 28.5 70 -6.7 19.9
20:20 1025 30.27 854 25.22 -2 28.4 69 -6.9 19.6
20:25 1025 30.27 854 25.22 -2 28.3 70 -6.8 19.7
20:30 1025 30.27 854 25.22 -2 28.4 69 -6.9 19.5
20:35 1025 30.27 854 25.22 -2.1 28.3 69 -7 19.5
20:40 1025 30.27 854 25.22 -2 28.3 68 -7.1 19.1
20:45 1025 30.27 854 25.22 -2 28.4 69 -7 19.4
20:50 1025 30.27 854 25.22 -2.1 28.3 69 -7.1 19.3
20:55 1025 30.27 854 25.22 -2.1 28.2 69 -7.1 19.2
21:00 1025 30.27 855 25.25 -2.2 28.1 70 -7 19.3
21:05 1025 30.27 855 25.25 -2.3 27.8 71 -6.9 19.5
21:10 1025 30.27 855 25.25 -2.4 27.7 69 -7.3 18.9
21:15 1026 30.3 855 25.25 -2.4 27.7 69 -7.4 18.7
21:20 1026 30.3 855 25.25 -2.4 27.8 69 -7.3 18.8
21:25 1026 30.3 855 25.25 -2.5 27.5 70 -7.3 18.9
21:30 1026 30.3 855 25.25 -2.7 27.2 71 -7.3 18.9
21:35 1026 30.3 855 25.25 -2.7 27.1 70 -7.4 18.7
21:40 1026 30.3 855 25.25 -2.6 27.3 68 -7.7 18.2
21:45 1026 30.3 855 25.25 -2.5 27.6 68 -7.6 18.4
21:50 1026 30.3 855 25.25 -2.4 27.7 66 -7.8 18
21:55 1026 30.3 855 25.25 -2.3 27.8 67 -7.6 18.4
22:00 1026 30.3 855 25.25 -2.4 27.7 67 -7.7 18.1
22:05 1026 30.3 855 25.25 -2.3 27.8 67 -7.6 18.2
22:10 1026 30.3 855 25.25 -2.5 27.5 68 -7.6 18.4
22:15 1026 30.3 855 25.25 -2.6 27.3 69 -7.6 18.4
22:20 1026 30.3 855 25.25 -2.7 27.1 70 -7.5 18.5
22:25 1026 30.3 855 25.25 -2.8 27 70 -7.6 18.3
22:30 1026 30.3 855 25.25 -2.8 26.9 70 -7.5 18.4
22:35 1026 30.3 855 25.25 -2.9 26.9 70 -7.6 18.4
22:40 1026 30.3 855 25.25 -2.9 26.7 70 -7.6 18.3
22:45 1026 30.3 855 25.25 -3 26.7 70 -7.6 18.3
22:50 1026 30.3 855 25.25 -3 26.6 71 -7.5 18.4
22:55 1026 30.3 855 25.25 -3 26.6 71 -7.6 18.3
23:00 1026 30.3 855 25.25 -3 26.6 71 -7.6 18.3
23:05 1026 30.3 855 25.25 -3.1 26.4 71 -7.6 18.3
23:10 1026 30.3 855 25.25 -3.2 26.3 71 -7.6 18.2
23:15 1026 30.3 856 25.28 -3.2 26.3 72 -7.6 18.4
23:20 1026 30.3 856 25.28 -3.2 26.2 72 -7.6 18.3
23:25 1026 30.3 856 25.28 -3.2 26.2 72 -7.6 18.2
23:30 1026 30.3 856 25.28 -3.2 26.2 72 -7.6 18.2
23:35 1026 30.3 856 25.28 -3.2 26.2 71 -7.7 18.1
23:40 1026 30.3 856 25.28 -3.3 26.1 71 -7.8 18
23:45 1026 30.3 856 25.28 -3.2 26.2 71 -7.7 18.1
23:50 1026 30.3 856 25.28 -3.2 26.3 71 -7.7 18.2
23:55 1026 30.3 856 25.28 -3.1 26.4 71 -7.7 18.2
24:00 1026 30.3 856 25.28 -3.2 26.3 71 -7.7 18.1